sensor_id;sensor_type;location;lat;lon;timestamp;P1;durP1;ratioP1;P2;durP2;ratioP2
16033;SDS011;8121;51.418;6.998;2023-03-14T00:05:47;1.77;;;0.90;;
16033;SDS011;8121;51.418;6.998;2023-03-14T00:16:04;3.37;;;1.00;;
16033;SDS011;8121;51.418;6.998;2023-03-14T00:47:31;2.93;;;0.80;;
16033;SDS011;8121;51.418;6.998;2023-03-14T00:58:02;4.67;;;1.10;;
16033;SDS011;8121;51.418;6.998;2023-03-14T01:08:06;2.90;;;1.40;;
16033;SDS011;8121;51.418;6.998;2023-03-14T01:18:11;1.87;;;0.60;;
16033;SDS011;8121;51.418;6.998;2023-03-14T01:28:20;1.17;;;0.70;;
16033;SDS011;8121;51.418;6.998;2023-03-14T01:38:24;0.80;;;0.70;;
16033;SDS011;8121;51.418;6.998;2023-03-14T01:48:40;4.20;;;1.00;;
16033;SDS011;8121;51.418;6.998;2023-03-14T01:58:47;3.83;;;1.00;;
16033;SDS011;8121;51.418;6.998;2023-03-14T02:08:50;0.83;;;0.70;;
16033;SDS011;8121;51.418;6.998;2023-03-14T02:18:55;2.87;;;0.80;;
16033;SDS011;8121;51.418;6.998;2023-03-14T02:28:59;3.23;;;0.83;;
16033;SDS011;8121;51.418;6.998;2023-03-14T02:39:03;1.10;;;1.00;;
16033;SDS011;8121;51.418;6.998;2023-03-14T02:49:12;1.67;;;0.93;;
16033;SDS011;8121;51.418;6.998;2023-03-14T02:59:18;3.47;;;1.23;;
16033;SDS011;8121;51.418;6.998;2023-03-14T03:09:22;1.37;;;1.00;;
16033;SDS011;8121;51.418;6.998;2023-03-14T03:19:24;4.00;;;1.33;;
16033;SDS011;8121;51.418;6.998;2023-03-14T03:29:36;4.40;;;0.93;;
16033;SDS011;8121;51.418;6.998;2023-03-14T03:39:56;2.67;;;0.70;;
16033;SDS011;8121;51.418;6.998;2023-03-14T03:50:24;1.10;;;0.80;;
16033;SDS011;8121;51.418;6.998;2023-03-14T04:01:03;2.07;;;0.70;;
16033;SDS011;8121;51.418;6.998;2023-03-14T04:22:12;3.23;;;0.80;;
16033;SDS011;8121;51.418;6.998;2023-03-14T04:32:14;2.20;;;0.63;;
16033;SDS011;8121;51.418;6.998;2023-03-14T04:42:17;2.00;;;0.70;;
16033;SDS011;8121;51.418;6.998;2023-03-14T04:52:18;2.17;;;0.40;;
16033;SDS011;8121;51.418;6.998;2023-03-14T05:02:21;1.00;;;0.60;;
16033;SDS011;8121;51.418;6.998;2023-03-14T05:12:23;1.10;;;0.60;;
16033;SDS011;8121;51.418;6.998;2023-03-14T05:22:25;0.60;;;0.50;;
16033;SDS011;8121;51.418;6.998;2023-03-14T05:32:27;2.70;;;0.60;;
16033;SDS011;8121;51.418;6.998;2023-03-14T05:42:30;0.70;;;0.60;;
16033;SDS011;8121;51.418;6.998;2023-03-14T05:52:31;0.83;;;0.70;;
16033;SDS011;8121;51.418;6.998;2023-03-14T06:02:34;1.27;;;1.17;;
16033;SDS011;8121;51.418;6.998;2023-03-14T06:12:35;2.80;;;0.90;;
16033;SDS011;8121;51.418;6.998;2023-03-14T06:22:38;1.27;;;0.97;;
16033;SDS011;8121;51.418;6.998;2023-03-14T06:32:40;0.80;;;0.80;;
16033;SDS011;8121;51.418;6.998;2023-03-14T06:42:43;0.60;;;0.60;;
16033;SDS011;8121;51.418;6.998;2023-03-14T06:52:44;0.70;;;0.53;;
16033;SDS011;8121;51.418;6.998;2023-03-14T07:02:49;0.77;;;0.50;;
16033;SDS011;8121;51.418;6.998;2023-03-14T07:12:52;1.17;;;0.60;;
16033;SDS011;8121;51.418;6.998;2023-03-14T07:22:55;0.70;;;0.50;;
16033;SDS011;8121;51.418;6.998;2023-03-14T07:32:56;0.60;;;0.60;;
16033;SDS011;8121;51.418;6.998;2023-03-14T07:42:59;0.60;;;0.40;;
16033;SDS011;8121;51.418;6.998;2023-03-14T07:53:00;0.63;;;0.43;;
16033;SDS011;8121;51.418;6.998;2023-03-14T08:03:04;0.60;;;0.50;;
16033;SDS011;8121;51.418;6.998;2023-03-14T08:13:05;0.70;;;0.63;;
16033;SDS011;8121;51.418;6.998;2023-03-14T08:23:08;2.53;;;0.90;;
16033;SDS011;8121;51.418;6.998;2023-03-14T08:33:10;1.23;;;0.50;;
16033;SDS011;8121;51.418;6.998;2023-03-14T08:43:13;0.70;;;0.60;;
16033;SDS011;8121;51.418;6.998;2023-03-14T08:53:14;0.90;;;0.70;;
16033;SDS011;8121;51.418;6.998;2023-03-14T09:03:17;0.80;;;0.80;;
16033;SDS011;8121;51.418;6.998;2023-03-14T09:13:18;1.00;;;0.90;;
16033;SDS011;8121;51.418;6.998;2023-03-14T09:23:22;0.60;;;0.53;;
16033;SDS011;8121;51.418;6.998;2023-03-14T09:33:23;0.60;;;0.40;;
16033;SDS011;8121;51.418;6.998;2023-03-14T09:43:26;0.80;;;0.60;;
16033;SDS011;8121;51.418;6.998;2023-03-14T09:53:33;1.13;;;0.70;;
16033;SDS011;8121;51.418;6.998;2023-03-14T10:03:39;1.17;;;1.07;;
16033;SDS011;8121;51.418;6.998;2023-03-14T10:13:50;2.83;;;1.40;;
16033;SDS011;8121;51.418;6.998;2023-03-14T10:34:39;1.33;;;1.13;;
16033;SDS011;8121;51.418;6.998;2023-03-14T10:44:44;1.30;;;1.20;;
16033;SDS011;8121;51.418;6.998;2023-03-14T10:54:54;1.20;;;1.00;;
16033;SDS011;8121;51.418;6.998;2023-03-14T11:05:10;1.03;;;0.80;;
16033;SDS011;8121;51.418;6.998;2023-03-14T11:15:18;1.30;;;0.80;;
16033;SDS011;8121;51.418;6.998;2023-03-14T11:36:33;2.33;;;0.80;;
16033;SDS011;8121;51.418;6.998;2023-03-14T11:46:43;1.57;;;0.60;;
16033;SDS011;8121;51.418;6.998;2023-03-14T11:57:01;1.27;;;0.60;;
16033;SDS011;8121;51.418;6.998;2023-03-14T12:07:08;4.10;;;1.00;;
16033;SDS011;8121;51.418;6.998;2023-03-14T12:18:13;4.13;;;1.10;;
16033;SDS011;8121;51.418;6.998;2023-03-14T12:28:34;3.83;;;0.70;;
16033;SDS011;8121;51.418;6.998;2023-03-14T13:00:20;7.97;;;2.50;;
16033;SDS011;8121;51.418;6.998;2023-03-14T13:10:48;6.63;;;1.83;;
16033;SDS011;8121;51.418;6.998;2023-03-14T13:20:59;4.30;;;1.50;;
16033;SDS011;8121;51.418;6.998;2023-03-14T13:31:18;9.57;;;2.10;;
16033;SDS011;8121;51.418;6.998;2023-03-14T13:41:27;17.10;;;1.83;;
16033;SDS011;8121;51.418;6.998;2023-03-14T13:51:30;9.30;;;2.20;;
16033;SDS011;8121;51.418;6.998;2023-03-14T14:01:34;9.03;;;2.00;;
16033;SDS011;8121;51.418;6.998;2023-03-14T14:11:42;16.03;;;1.60;;
16033;SDS011;8121;51.418;6.998;2023-03-14T14:21:48;19.13;;;2.83;;
16033;SDS011;8121;51.418;6.998;2023-03-14T14:42:28;7.97;;;1.60;;
16033;SDS011;8121;51.418;6.998;2023-03-14T14:52:49;3.23;;;1.43;;
16033;SDS011;8121;51.418;6.998;2023-03-14T15:03:04;4.37;;;1.23;;
16033;SDS011;8121;51.418;6.998;2023-03-14T15:13:08;8.57;;;1.40;;
16033;SDS011;8121;51.418;6.998;2023-03-14T15:23:10;1.50;;;1.40;;
16033;SDS011;8121;51.418;6.998;2023-03-14T15:33:14;5.47;;;1.60;;
16033;SDS011;8121;51.418;6.998;2023-03-14T15:43:18;7.73;;;1.80;;
16033;SDS011;8121;51.418;6.998;2023-03-14T15:53:27;5.13;;;1.47;;
16033;SDS011;8121;51.418;6.998;2023-03-14T16:03:51;4.40;;;1.07;;
16033;SDS011;8121;51.418;6.998;2023-03-14T16:14:00;4.10;;;1.20;;
16033;SDS011;8121;51.418;6.998;2023-03-14T16:24:02;9.07;;;1.80;;
16033;SDS011;8121;51.418;6.998;2023-03-14T16:34:07;5.17;;;1.43;;
16033;SDS011;8121;51.418;6.998;2023-03-14T16:44:08;6.07;;;1.30;;
16033;SDS011;8121;51.418;6.998;2023-03-14T16:54:11;5.43;;;1.73;;
16033;SDS011;8121;51.418;6.998;2023-03-14T17:04:13;2.90;;;1.63;;
16033;SDS011;8121;51.418;6.998;2023-03-14T17:14:16;9.13;;;3.03;;
16033;SDS011;8121;51.418;6.998;2023-03-14T17:24:17;15.73;;;3.30;;
16033;SDS011;8121;51.418;6.998;2023-03-14T17:34:20;4.53;;;1.40;;
16033;SDS011;8121;51.418;6.998;2023-03-14T17:44:22;7.53;;;2.10;;
16033;SDS011;8121;51.418;6.998;2023-03-14T17:54:25;9.93;;;1.50;;
16033;SDS011;8121;51.418;6.998;2023-03-14T18:04:26;2.27;;;1.50;;
16033;SDS011;8121;51.418;6.998;2023-03-14T18:14:29;6.43;;;1.50;;
16033;SDS011;8121;51.418;6.998;2023-03-14T18:24:31;4.93;;;1.20;;
16033;SDS011;8121;51.418;6.998;2023-03-14T18:34:34;2.00;;;1.30;;
16033;SDS011;8121;51.418;6.998;2023-03-14T18:44:35;2.27;;;1.10;;
16033;SDS011;8121;51.418;6.998;2023-03-14T18:54:38;9.20;;;1.83;;
16033;SDS011;8121;51.418;6.998;2023-03-14T19:04:40;4.57;;;1.20;;
16033;SDS011;8121;51.418;6.998;2023-03-14T19:14:43;2.80;;;0.90;;
16033;SDS011;8121;51.418;6.998;2023-03-14T19:24:44;1.13;;;0.87;;
16033;SDS011;8121;51.418;6.998;2023-03-14T19:34:47;1.47;;;1.10;;
16033;SDS011;8121;51.418;6.998;2023-03-14T19:44:49;6.10;;;1.20;;
16033;SDS011;8121;51.418;6.998;2023-03-14T19:54:53;3.40;;;1.00;;
16033;SDS011;8121;51.418;6.998;2023-03-14T20:04:56;2.80;;;1.13;;
16033;SDS011;8121;51.418;6.998;2023-03-14T20:14:59;12.43;;;1.80;;
16033;SDS011;8121;51.418;6.998;2023-03-14T20:25:01;6.83;;;1.73;;
16033;SDS011;8121;51.418;6.998;2023-03-14T20:35:05;3.83;;;0.90;;
16033;SDS011;8121;51.418;6.998;2023-03-14T20:45:08;9.47;;;1.67;;
16033;SDS011;8121;51.418;6.998;2023-03-14T20:55:11;2.13;;;1.07;;
16033;SDS011;8121;51.418;6.998;2023-03-14T21:05:12;2.10;;;1.17;;
16033;SDS011;8121;51.418;6.998;2023-03-14T21:15:16;5.23;;;1.03;;
16033;SDS011;8121;51.418;6.998;2023-03-14T21:25:17;2.40;;;1.43;;
16033;SDS011;8121;51.418;6.998;2023-03-14T21:35:23;3.63;;;1.10;;
16033;SDS011;8121;51.418;6.998;2023-03-14T21:45:25;6.50;;;0.97;;
16033;SDS011;8121;51.418;6.998;2023-03-14T21:55:28;11.30;;;1.53;;
16033;SDS011;8121;51.418;6.998;2023-03-14T22:05:30;1.70;;;0.90;;
16033;SDS011;8121;51.418;6.998;2023-03-14T22:15:33;12.13;;;1.17;;
16033;SDS011;8121;51.418;6.998;2023-03-14T22:25:37;1.40;;;1.20;;
16033;SDS011;8121;51.418;6.998;2023-03-14T22:35:41;2.40;;;1.30;;
16033;SDS011;8121;51.418;6.998;2023-03-14T22:45:56;2.13;;;1.10;;
16033;SDS011;8121;51.418;6.998;2023-03-14T22:56:00;2.50;;;1.37;;
16033;SDS011;8121;51.418;6.998;2023-03-14T23:06:03;6.43;;;1.60;;
16033;SDS011;8121;51.418;6.998;2023-03-14T23:16:08;2.83;;;1.80;;
16033;SDS011;8121;51.418;6.998;2023-03-14T23:27:02;1.30;;;1.10;;
16033;SDS011;8121;51.418;6.998;2023-03-14T23:37:05;9.00;;;2.30;;
16033;SDS011;8121;51.418;6.998;2023-03-14T23:47:07;3.03;;;1.20;;
16033;SDS011;8121;51.418;6.998;2023-03-14T23:57:11;6.17;;;1.93;;
